createdAt,value
2017-10-13T00:00:34.416Z,12.08
2017-10-13T00:03:01.870Z,12.16
2017-10-13T00:05:29.335Z,12.29
2017-10-13T00:07:56.878Z,12.32
2017-10-13T00:10:24.361Z,12.25
2017-10-13T00:12:51.806Z,12.03
2017-10-13T00:15:19.267Z,12.25
2017-10-13T00:17:46.805Z,12.28
2017-10-13T00:20:14.265Z,12.19
2017-10-13T00:22:41.718Z,12.03
2017-10-13T00:25:09.191Z,12.00
2017-10-13T00:27:36.633Z,11.86
2017-10-13T00:30:04.099Z,11.84
2017-10-13T00:32:31.545Z,12.04
2017-10-13T00:34:59.365Z,12.12
2017-10-13T00:37:26.816Z,12.14
2017-10-13T00:39:54.303Z,12.27
2017-10-13T00:42:21.765Z,12.36
2017-10-13T00:44:49.198Z,12.45
2017-10-13T00:47:16.673Z,12.42
2017-10-13T00:49:44.155Z,12.51
2017-10-13T00:52:11.624Z,12.61
2017-10-13T00:54:39.172Z,12.66
2017-10-13T00:57:06.676Z,12.62
2017-10-13T00:59:34.129Z,12.70
2017-10-13T01:02:01.620Z,12.62
2017-10-13T01:04:29.075Z,12.76
2017-10-13T01:06:56.657Z,12.63
2017-10-13T01:09:24.129Z,12.69
2017-10-13T01:11:51.600Z,12.70
2017-10-13T01:14:19.056Z,12.87
2017-10-13T01:16:46.587Z,13.02
2017-10-13T01:19:14.036Z,12.88
2017-10-13T01:21:41.495Z,12.84
2017-10-13T01:24:08.967Z,13.17
2017-10-13T01:26:36.443Z,13.02
2017-10-13T01:29:03.925Z,12.92
2017-10-13T01:31:31.382Z,12.79
2017-10-13T01:33:58.879Z,12.74
2017-10-13T01:36:26.335Z,12.49
2017-10-13T01:38:53.893Z,12.60
2017-10-13T01:41:21.355Z,12.65
2017-10-13T01:43:48.850Z,12.67
2017-10-13T01:46:16.365Z,12.66
2017-10-13T01:48:44.795Z,12.68
2017-10-13T01:51:12.264Z,12.51
2017-10-13T01:53:39.725Z,12.54
2017-10-13T01:56:07.206Z,12.48
2017-10-13T01:58:34.672Z,12.34
2017-10-13T02:01:02.161Z,12.19
2017-10-13T02:03:29.693Z,12.06
2017-10-13T02:05:57.168Z,11.98
2017-10-13T02:08:24.624Z,11.94
2017-10-13T02:10:52.105Z,12.02
2017-10-13T02:13:19.651Z,12.07
2017-10-13T02:15:47.120Z,11.97
2017-10-13T02:18:14.639Z,11.82
2017-10-13T02:20:42.121Z,11.71
2017-10-13T02:23:09.570Z,11.69
2017-10-13T02:25:37.021Z,11.65
2017-10-13T02:28:04.528Z,11.64
2017-10-13T02:30:32.016Z,11.73
2017-10-13T02:32:59.574Z,11.53
2017-10-13T02:35:27.036Z,11.35
2017-10-13T02:37:54.590Z,11.38
2017-10-13T02:40:22.045Z,11.34
2017-10-13T02:42:49.534Z,11.47
2017-10-13T02:45:16.994Z,11.51
2017-10-13T02:47:44.523Z,11.53
2017-10-13T02:50:11.977Z,11.47
2017-10-13T02:52:39.443Z,11.46
2017-10-13T02:55:06.993Z,11.45
2017-10-13T02:57:34.457Z,11.40
2017-10-13T03:00:01.936Z,11.36
2017-10-13T03:02:29.389Z,11.16
2017-10-13T03:04:56.862Z,11.05
2017-10-13T03:07:24.388Z,10.86
2017-10-13T03:09:53.382Z,10.86
2017-10-13T03:12:20.841Z,10.82
2017-10-13T03:14:48.306Z,10.65
2017-10-13T03:17:15.844Z,10.68
2017-10-13T03:19:43.338Z,10.59
2017-10-13T03:22:10.856Z,10.57
2017-10-13T03:24:38.337Z,10.67
2017-10-13T03:27:05.798Z,10.65
2017-10-13T03:29:34.248Z,10.60
2017-10-13T03:32:01.718Z,10.62
2017-10-13T03:34:29.160Z,10.36
2017-10-13T03:36:56.725Z,10.28
2017-10-13T03:39:24.176Z,10.38
2017-10-13T03:41:51.681Z,10.32
2017-10-13T03:44:19.131Z,10.18
2017-10-13T03:46:46.602Z,10.08
2017-10-13T03:49:14.067Z,10.26
2017-10-13T03:51:41.569Z,10.07
2017-10-13T03:54:09.020Z,10.13
2017-10-13T03:56:36.499Z,10.00
2017-10-13T03:59:03.952Z,9.92
2017-10-13T04:01:31.430Z,9.91
2017-10-13T04:03:58.884Z,10.03
2017-10-13T04:06:26.331Z,10.00
2017-10-13T04:08:53.905Z,10.08
2017-10-13T04:11:21.437Z,10.02
2017-10-13T04:13:48.921Z,9.84
2017-10-13T04:16:16.438Z,9.82
2017-10-13T04:18:44.002Z,9.90
2017-10-13T04:21:11.460Z,9.84
2017-10-13T04:23:38.956Z,9.92
2017-10-13T04:26:06.399Z,9.89
2017-10-13T04:28:33.868Z,10.03
2017-10-13T04:31:01.320Z,10.08
2017-10-13T04:33:28.792Z,10.09
2017-10-13T04:35:56.297Z,10.17
2017-10-13T04:38:23.772Z,10.06
2017-10-13T04:40:51.221Z,10.15
2017-10-13T04:43:18.710Z,10.07
2017-10-13T04:45:46.166Z,10.13
2017-10-13T04:48:13.655Z,10.18
2017-10-13T04:50:41.141Z,10.14
2017-10-13T04:53:08.601Z,10.12
2017-10-13T04:55:36.165Z,10.16
2017-10-13T04:58:03.621Z,10.18
2017-10-13T05:00:31.172Z,10.20
2017-10-13T05:02:58.628Z,10.09
2017-10-13T05:05:26.095Z,9.98
2017-10-13T05:07:53.568Z,9.93
2017-10-13T05:10:21.041Z,9.91
2017-10-13T05:12:48.497Z,9.86
2017-10-13T05:15:16.021Z,9.82
2017-10-13T05:17:43.605Z,9.77
2017-10-13T05:20:11.047Z,9.73
2017-10-13T05:22:38.576Z,9.74
2017-10-13T05:25:06.024Z,9.64
2017-10-13T05:27:33.592Z,9.62
2017-10-13T05:30:01.040Z,9.58
2017-10-13T05:32:28.516Z,9.53
2017-10-13T05:34:55.962Z,9.49
2017-10-13T05:37:23.434Z,9.50
2017-10-13T05:39:50.891Z,9.35
2017-10-13T05:42:18.452Z,9.34
2017-10-13T05:44:45.899Z,9.39
2017-10-13T05:47:13.368Z,9.34
2017-10-13T05:49:40.832Z,9.33
2017-10-13T05:52:08.341Z,9.23
2017-10-13T05:54:35.799Z,9.29
2017-10-13T05:57:03.281Z,9.38
2017-10-13T05:59:30.752Z,9.47
2017-10-13T06:01:58.290Z,9.61
2017-10-13T06:04:25.848Z,9.65
2017-10-13T06:06:53.315Z,9.70
2017-10-13T06:09:20.776Z,9.70
2017-10-13T06:11:48.324Z,9.94
2017-10-13T06:14:15.886Z,9.95
2017-10-13T06:16:43.444Z,10.21
2017-10-13T06:19:10.998Z,10.28
2017-10-13T06:21:38.557Z,10.28
2017-10-13T06:24:06.039Z,10.33
2017-10-13T06:26:33.505Z,10.47
2017-10-13T06:29:00.989Z,10.63
2017-10-13T06:31:28.456Z,10.73
2017-10-13T06:33:56.073Z,10.89
2017-10-13T06:36:23.546Z,11.05
2017-10-13T06:38:51.037Z,11.18
2017-10-13T06:41:18.501Z,11.40
2017-10-13T06:43:45.975Z,11.39
2017-10-13T06:46:13.427Z,11.44
2017-10-13T06:48:40.923Z,11.50
2017-10-13T06:51:08.380Z,11.68
2017-10-13T06:53:35.860Z,11.80
2017-10-13T06:56:03.361Z,11.90
2017-10-13T06:58:30.844Z,12.04
2017-10-13T07:00:58.313Z,12.18
2017-10-13T07:03:25.795Z,12.35
2017-10-13T07:05:53.248Z,12.52
2017-10-13T07:08:20.745Z,12.66
2017-10-13T07:10:48.309Z,12.80
2017-10-13T07:13:15.803Z,12.92
2017-10-13T07:15:43.288Z,13.05
2017-10-13T07:18:10.774Z,13.09
2017-10-13T07:20:38.236Z,13.31
2017-10-13T07:23:05.798Z,13.58
2017-10-13T07:25:33.272Z,13.78
2017-10-13T07:28:00.769Z,13.90
2017-10-13T07:30:28.263Z,14.19
2017-10-13T07:32:55.745Z,14.31
2017-10-13T07:35:23.206Z,14.50
2017-10-13T07:37:50.706Z,14.58
2017-10-13T07:40:18.181Z,14.88
2017-10-13T07:42:45.648Z,14.87
2017-10-13T07:45:13.211Z,14.80
2017-10-13T07:47:40.686Z,15.08
2017-10-13T07:50:08.167Z,15.25
2017-10-13T07:52:35.622Z,15.32
2017-10-13T07:55:03.093Z,15.28
2017-10-13T07:57:30.584Z,15.15
2017-10-13T07:59:58.153Z,15.33
2017-10-13T08:02:25.709Z,15.23
2017-10-13T08:04:53.259Z,15.11
2017-10-13T08:07:20.825Z,15.09
2017-10-13T08:09:48.321Z,15.28
2017-10-13T08:12:15.788Z,15.50
2017-10-13T08:14:43.268Z,15.75
2017-10-13T08:17:10.745Z,15.71
2017-10-13T08:19:38.229Z,15.90
2017-10-13T08:22:05.692Z,16.14
2017-10-13T08:24:33.173Z,15.95
2017-10-13T08:27:00.628Z,15.92
2017-10-13T08:29:28.112Z,15.90
2017-10-13T08:31:55.621Z,15.95
2017-10-13T08:34:23.161Z,16.14
2017-10-13T08:36:50.623Z,16.18
2017-10-13T08:39:18.109Z,16.29
2017-10-13T08:41:45.653Z,15.91
2017-10-13T08:44:13.180Z,16.11
2017-10-13T08:46:40.744Z,16.11
2017-10-13T08:49:08.299Z,16.29
2017-10-13T08:51:35.811Z,16.81
2017-10-13T08:54:03.282Z,16.57
2017-10-13T08:56:30.796Z,16.76
2017-10-13T08:58:58.332Z,16.69
2017-10-13T09:01:25.828Z,16.81
2017-10-13T09:03:53.353Z,16.79
2017-10-13T09:06:20.844Z,16.85
2017-10-13T09:08:48.300Z,16.86
2017-10-13T09:11:15.775Z,16.98
2017-10-13T09:13:43.237Z,16.90
2017-10-13T09:16:10.729Z,17.05
2017-10-13T09:18:38.225Z,17.09
2017-10-13T09:21:05.703Z,17.02
2017-10-13T09:23:33.178Z,17.08
2017-10-13T09:26:00.658Z,17.19
2017-10-13T09:28:28.148Z,17.50
2017-10-13T09:30:55.645Z,17.40
2017-10-13T09:33:23.108Z,17.41
2017-10-13T09:35:50.598Z,17.33
2017-10-13T09:38:18.095Z,17.21
2017-10-13T09:40:45.579Z,17.27
2017-10-13T09:43:13.039Z,17.44
2017-10-13T09:45:40.516Z,17.53
2017-10-13T09:48:07.988Z,17.47
2017-10-13T09:50:35.475Z,17.54
2017-10-13T09:53:02.937Z,17.39
2017-10-13T09:55:30.424Z,17.81
2017-10-13T09:57:57.887Z,17.76
2017-10-13T10:00:25.406Z,17.82
2017-10-13T10:02:52.863Z,17.69
2017-10-13T10:05:20.320Z,17.67
2017-10-13T10:07:47.800Z,17.63
2017-10-13T10:10:15.269Z,17.70
2017-10-13T10:12:42.792Z,17.68
2017-10-13T10:15:10.260Z,17.78
2017-10-13T10:17:37.755Z,18.10
2017-10-13T10:20:05.252Z,18.23
2017-10-13T10:22:32.773Z,18.27
2017-10-13T10:25:00.259Z,18.64
2017-10-13T10:27:27.788Z,19.03
2017-10-13T10:29:55.349Z,18.99
2017-10-13T10:32:22.904Z,18.71
2017-10-13T10:34:50.361Z,18.79
2017-10-13T10:37:17.856Z,18.66
2017-10-13T10:39:45.381Z,18.83
2017-10-13T10:42:12.890Z,19.03
2017-10-13T10:44:40.347Z,19.13
2017-10-13T10:47:07.810Z,19.16
2017-10-13T10:49:35.305Z,19.25
2017-10-13T10:52:02.785Z,19.30
2017-10-13T10:54:30.300Z,19.26
2017-10-13T10:56:57.756Z,19.28
2017-10-13T10:59:25.231Z,19.18
2017-10-13T11:01:52.718Z,19.38
2017-10-13T11:04:20.196Z,19.51
2017-10-13T11:06:47.702Z,19.42
2017-10-13T11:09:15.262Z,19.51
2017-10-13T11:11:42.708Z,19.70
2017-10-13T11:14:10.175Z,19.72
2017-10-13T11:16:37.741Z,19.66
2017-10-13T11:19:05.212Z,20.12
2017-10-13T11:21:32.750Z,20.48
2017-10-13T11:24:00.238Z,20.45
2017-10-13T11:26:27.772Z,20.52
2017-10-13T11:28:55.328Z,20.70
2017-10-13T11:31:22.903Z,20.81
2017-10-13T11:33:50.443Z,21.04
2017-10-13T11:36:17.904Z,20.97
2017-10-13T11:38:45.388Z,21.24
2017-10-13T11:41:12.848Z,21.05
2017-10-13T11:43:40.321Z,21.22
2017-10-13T11:46:07.780Z,21.27
2017-10-13T11:48:35.287Z,21.06
2017-10-13T11:51:02.749Z,21.21
2017-10-13T11:53:30.238Z,20.93
2017-10-13T11:55:57.689Z,20.89
2017-10-13T11:58:25.173Z,20.64
2017-10-13T12:00:52.624Z,20.90
2017-10-13T12:03:20.099Z,20.73
2017-10-13T12:05:47.548Z,20.70
2017-10-13T12:08:15.040Z,20.34
2017-10-13T12:10:42.504Z,20.35
2017-10-13T12:13:09.960Z,20.25
2017-10-13T12:15:37.503Z,20.09
2017-10-13T12:18:04.956Z,20.30
2017-10-13T12:20:32.427Z,20.08
2017-10-13T12:22:59.879Z,20.03
2017-10-13T12:25:27.348Z,20.01
2017-10-13T12:27:54.893Z,20.24
2017-10-13T12:30:22.379Z,20.17
2017-10-13T12:32:49.847Z,20.32
2017-10-13T12:35:17.338Z,20.15
2017-10-13T12:37:44.794Z,20.37
2017-10-13T12:40:12.277Z,20.12
2017-10-13T12:42:39.736Z,20.25
2017-10-13T12:45:07.213Z,20.21
2017-10-13T12:47:34.671Z,20.28
2017-10-13T12:50:02.213Z,20.29
2017-10-13T12:52:29.818Z,20.61
2017-10-13T12:54:57.297Z,20.21
2017-10-13T12:57:24.747Z,20.15
2017-10-13T12:59:52.205Z,20.21
2017-10-13T13:02:19.680Z,20.08
2017-10-13T13:04:47.144Z,20.09
2017-10-13T13:07:14.709Z,20.16
2017-10-13T13:09:42.267Z,20.22
2017-10-13T13:12:09.828Z,19.92
2017-10-13T13:14:37.312Z,19.97
2017-10-13T13:17:04.801Z,19.93
2017-10-13T13:19:32.313Z,19.56
2017-10-13T13:21:59.793Z,19.70
2017-10-13T13:24:27.248Z,19.48
2017-10-13T13:26:54.726Z,19.56
2017-10-13T13:29:22.204Z,19.69
2017-10-13T13:31:49.685Z,19.51
2017-10-13T13:34:17.139Z,19.48
2017-10-13T13:36:44.619Z,19.31
2017-10-13T13:39:12.094Z,19.41
2017-10-13T13:41:39.568Z,19.39
2017-10-13T13:44:07.020Z,19.54
2017-10-13T13:46:34.484Z,19.46
2017-10-13T13:49:01.957Z,19.44
2017-10-13T13:51:29.429Z,19.49
2017-10-13T13:53:56.893Z,19.70
2017-10-13T13:56:24.420Z,19.55
2017-10-13T13:58:51.872Z,19.60
2017-10-13T14:01:19.376Z,19.47
2017-10-13T14:03:46.832Z,19.53
2017-10-13T14:06:14.331Z,19.48
2017-10-13T14:08:41.794Z,19.50
2017-10-13T14:11:09.296Z,19.47
2017-10-13T14:13:36.741Z,19.40
2017-10-13T14:16:04.240Z,19.43
2017-10-13T14:18:31.696Z,19.32
2017-10-13T14:20:59.172Z,19.48
2017-10-13T14:23:26.679Z,19.31
2017-10-13T14:25:54.162Z,19.37
2017-10-13T14:28:21.632Z,19.35
2017-10-13T14:30:49.112Z,19.36
2017-10-13T14:33:16.589Z,19.31
2017-10-13T14:35:44.087Z,19.43
2017-10-13T14:38:11.550Z,19.41
2017-10-13T14:40:39.028Z,19.34
2017-10-13T14:43:06.505Z,19.30
2017-10-13T14:45:33.994Z,19.22
2017-10-13T14:48:01.476Z,19.18
2017-10-13T14:50:28.935Z,19.25
2017-10-13T14:52:56.417Z,19.25
2017-10-13T14:55:23.895Z,19.33
2017-10-13T14:57:51.384Z,19.36
2017-10-13T15:00:18.934Z,19.36
2017-10-13T15:02:46.409Z,19.38
2017-10-13T15:05:13.935Z,19.33
2017-10-13T15:07:41.528Z,19.40
2017-10-13T15:10:08.986Z,19.35
2017-10-13T15:12:36.480Z,19.31
2017-10-13T15:15:03.973Z,19.32
2017-10-13T15:17:31.448Z,19.27
2017-10-13T15:19:58.916Z,19.25
2017-10-13T15:22:26.397Z,19.23
2017-10-13T15:24:59.595Z,19.23
2017-10-13T15:41:06.954Z,19.09
2017-10-13T15:43:40.141Z,19.18
2017-10-13T15:46:13.155Z,19.13
2017-10-13T15:48:40.642Z,19.13
2017-10-13T15:54:13.046Z,19.12
2017-10-13T15:56:40.659Z,19.03
2017-10-13T15:59:08.178Z,19.02
2017-10-13T16:01:35.628Z,19.09
2017-10-13T16:04:03.177Z,19.19
2017-10-13T16:06:30.636Z,19.17
2017-10-13T16:08:58.192Z,19.23
2017-10-13T16:11:25.754Z,19.19
2017-10-13T16:13:53.225Z,19.16
2017-10-13T16:16:20.689Z,19.12
2017-10-13T16:18:48.186Z,19.07
2017-10-13T16:21:15.686Z,19.01
2017-10-13T16:23:43.240Z,18.94
2017-10-13T16:26:10.748Z,18.92
2017-10-13T16:28:38.257Z,18.82
2017-10-13T16:31:05.721Z,18.78
2017-10-13T16:33:33.204Z,18.59
2017-10-13T16:36:00.724Z,18.46
2017-10-13T16:38:28.202Z,18.42
2017-10-13T16:40:55.680Z,18.35
2017-10-13T16:43:23.127Z,18.22
2017-10-13T16:45:50.604Z,18.13
2017-10-13T16:48:18.068Z,17.96
2017-10-13T16:50:45.542Z,17.70
2017-10-13T16:53:13.076Z,17.70
2017-10-13T16:55:40.623Z,17.56
2017-10-13T16:58:08.073Z,17.50
2017-10-13T17:00:35.545Z,17.42
2017-10-13T17:03:03.146Z,17.24
2017-10-13T17:05:30.722Z,17.19
2017-10-13T17:07:58.181Z,16.95
2017-10-13T17:10:25.650Z,16.95
2017-10-13T17:12:53.119Z,16.41
2017-10-13T17:15:20.650Z,16.34
2017-10-13T17:17:48.114Z,16.33
2017-10-13T17:20:15.689Z,16.25
2017-10-13T17:22:43.148Z,16.17
2017-10-13T17:25:10.627Z,15.87
2017-10-13T17:27:38.112Z,15.74
2017-10-13T17:30:05.586Z,15.66
2017-10-13T17:32:33.065Z,15.34
2017-10-13T17:35:00.551Z,15.33
2017-10-13T17:37:28.008Z,15.08
2017-10-13T17:39:55.510Z,15.08
2017-10-13T17:42:22.965Z,15.19
2017-10-13T17:44:50.452Z,15.22
2017-10-13T17:47:17.916Z,15.14
2017-10-13T17:49:45.470Z,15.00
2017-10-13T17:52:12.916Z,14.93
2017-10-13T17:54:40.391Z,15.05
2017-10-13T17:57:07.846Z,15.00
2017-10-13T17:59:35.328Z,15.08
2017-10-13T18:02:02.791Z,14.87
2017-10-13T18:04:30.264Z,14.87
2017-10-13T18:06:57.719Z,14.85
2017-10-13T18:09:25.237Z,14.89
2017-10-13T18:11:52.698Z,14.68
2017-10-13T18:14:20.218Z,14.73
2017-10-13T18:16:47.778Z,14.59
2017-10-13T18:19:15.228Z,14.62
2017-10-13T18:21:42.699Z,14.47
2017-10-13T18:24:10.242Z,14.42
2017-10-13T18:26:37.733Z,14.31
2017-10-13T18:29:05.274Z,14.57
2017-10-13T18:31:32.748Z,14.59
2017-10-13T18:34:00.277Z,14.70
2017-10-13T18:36:27.752Z,14.64
2017-10-13T18:38:55.213Z,14.55
2017-10-13T18:41:22.753Z,14.50
2017-10-13T18:43:50.313Z,14.28
2017-10-13T18:46:17.790Z,14.40
2017-10-13T18:48:45.259Z,14.45
2017-10-13T18:51:12.751Z,14.57
2017-10-13T18:53:40.248Z,14.52
2017-10-13T18:56:07.725Z,14.52
2017-10-13T18:58:35.176Z,14.69
2017-10-13T19:01:02.705Z,14.48
2017-10-13T19:03:30.262Z,14.56
2017-10-13T19:05:57.727Z,14.62
2017-10-13T19:08:25.194Z,14.50
2017-10-13T19:10:52.659Z,14.46
2017-10-13T19:13:20.129Z,14.37
2017-10-13T19:15:47.604Z,14.34
2017-10-13T19:18:15.052Z,14.26
2017-10-13T19:20:42.524Z,14.16
2017-10-13T19:23:09.976Z,14.15
2017-10-13T19:25:37.453Z,14.04
2017-10-13T19:28:04.904Z,14.01
2017-10-13T19:30:32.383Z,13.94
2017-10-13T19:32:59.837Z,13.92
2017-10-13T19:35:27.308Z,13.92
2017-10-13T19:37:54.868Z,13.91
2017-10-13T19:40:22.424Z,14.01
2017-10-13T19:42:49.976Z,14.01
2017-10-13T19:45:17.448Z,13.99
2017-10-13T19:47:44.899Z,13.98
2017-10-13T19:50:12.384Z,13.81
2017-10-13T19:52:39.841Z,13.76
2017-10-13T19:55:07.320Z,13.67
2017-10-13T19:57:34.799Z,13.52
2017-10-13T20:00:02.258Z,13.58
2017-10-13T20:02:29.750Z,13.64
2017-10-13T20:04:57.214Z,13.60
2017-10-13T20:07:24.693Z,13.49
2017-10-13T20:09:52.157Z,13.42
2017-10-13T20:12:19.637Z,13.37
2017-10-13T20:14:47.102Z,13.46
2017-10-13T20:17:14.600Z,13.34
2017-10-13T20:19:42.063Z,13.12
2017-10-13T20:22:09.545Z,12.97
2017-10-13T20:24:37.014Z,12.81
2017-10-13T20:27:04.498Z,12.77
2017-10-13T20:29:31.961Z,12.99
2017-10-13T20:31:59.452Z,12.82
2017-10-13T20:34:27.100Z,12.88
2017-10-13T20:36:54.589Z,12.74
2017-10-13T20:39:22.088Z,12.68
2017-10-13T20:41:49.597Z,12.72
2017-10-13T20:44:17.050Z,12.52
2017-10-13T20:46:44.534Z,12.44
2017-10-13T20:49:11.989Z,12.51
2017-10-13T20:51:39.463Z,12.37
2017-10-13T20:54:06.911Z,12.42
2017-10-13T20:56:34.398Z,12.51
2017-10-13T20:59:01.952Z,12.42
2017-10-13T21:01:29.458Z,12.18
2017-10-13T21:03:56.919Z,12.09
2017-10-13T21:06:24.400Z,12.03
2017-10-13T21:08:51.874Z,12.20
2017-10-13T21:11:19.345Z,12.05
2017-10-13T21:13:46.891Z,12.06
2017-10-13T21:16:14.368Z,12.07
2017-10-13T21:18:41.836Z,11.99
2017-10-13T21:21:09.309Z,11.95
2017-10-13T21:23:36.785Z,11.97
2017-10-13T21:26:04.246Z,11.90
2017-10-13T21:28:31.720Z,11.81
2017-10-13T21:30:59.173Z,11.78
2017-10-13T21:33:26.648Z,11.79
2017-10-13T21:35:54.100Z,11.79
2017-10-13T21:38:21.576Z,11.75
2017-10-13T21:40:49.023Z,11.77
2017-10-13T21:43:16.497Z,11.70
2017-10-13T21:45:43.953Z,11.69
2017-10-13T21:48:11.439Z,11.74
2017-10-13T21:50:38.897Z,11.69
2017-10-13T21:53:06.410Z,11.61
2017-10-13T21:55:33.955Z,11.58
2017-10-13T21:58:01.444Z,11.58
2017-10-13T22:00:28.911Z,11.51
2017-10-13T22:02:56.442Z,11.52
2017-10-13T22:05:23.997Z,11.54
2017-10-13T22:07:51.557Z,11.52
2017-10-13T22:10:19.023Z,11.44
2017-10-13T22:12:46.540Z,11.29
2017-10-13T22:15:14.004Z,11.32
2017-10-13T22:17:41.484Z,11.31
2017-10-13T22:20:08.950Z,11.36
2017-10-13T22:22:36.446Z,11.29
2017-10-13T22:25:03.904Z,11.33
2017-10-13T22:27:31.405Z,11.34
2017-10-13T22:29:58.995Z,11.34
2017-10-13T22:32:26.481Z,11.33
2017-10-13T22:34:53.956Z,11.33
2017-10-13T22:37:21.447Z,11.30
2017-10-13T22:39:48.905Z,11.32
2017-10-13T22:42:16.460Z,11.24
2017-10-13T22:44:43.954Z,11.22
2017-10-13T22:47:11.425Z,11.28
2017-10-13T22:49:38.908Z,11.20
2017-10-13T22:52:06.369Z,11.12
2017-10-13T22:54:33.847Z,11.02
2017-10-13T22:57:01.319Z,11.06
2017-10-13T22:59:28.832Z,11.06
2017-10-13T23:01:56.312Z,11.08
2017-10-13T23:04:23.788Z,11.02
2017-10-13T23:06:51.326Z,10.89
2017-10-13T23:09:18.841Z,10.94
2017-10-13T23:11:46.300Z,10.90
2017-10-13T23:14:13.805Z,10.92
2017-10-13T23:16:41.268Z,10.94
2017-10-13T23:19:08.752Z,10.88
2017-10-13T23:21:36.215Z,10.92
2017-10-13T23:24:03.699Z,10.92
2017-10-13T23:26:31.174Z,10.92
2017-10-13T23:28:58.660Z,10.97
2017-10-13T23:31:26.129Z,10.79
2017-10-13T23:33:53.622Z,11.04
2017-10-13T23:36:21.075Z,10.76
2017-10-13T23:38:48.580Z,10.78
2017-10-13T23:41:16.118Z,10.87
2017-10-13T23:43:43.596Z,10.77
2017-10-13T23:46:11.056Z,10.69
2017-10-13T23:48:38.544Z,10.61
2017-10-13T23:51:06.052Z,10.52
2017-10-13T23:53:33.532Z,10.54
2017-10-13T23:56:01.064Z,10.60
2017-10-13T23:58:28.552Z,10.64
